Time;durP1;ratioP1;P1;durP2;ratioP2;P2;SDS_P1;SDS_P2;PMS_P1;PMS_P2;Temp;Humidity;BMP_temperature;BMP_pressure;BME280_temperature;BME280_humidity;BME280_pressure;Samples;Min_cycle;Max_cycle;Signal;HPM_P1;HPM_P2
2024/01/19 00:00:31;;;;;;;;;;;-3.10;99.90;;;;;;7330386;19;108609;-61
2024/01/19 00:02:58;;;;;;;;;;;-3.10;99.90;;;;;;7330701;19;108723;-61
2024/01/19 00:05:25;;;;;;;;;;;-3.10;99.90;;;;;;7328904;19;110175;-61
2024/01/19 00:07:52;;;;;;;;;;;-3.20;99.90;;;;;;7331104;19;108857;-61
2024/01/19 00:10:19;;;;;;;;;;;-3.20;99.90;;;;;;7329642;19;109322;-61
2024/01/19 00:12:47;;;;;;;;;;;-3.20;99.90;;;;;;7335928;19;109747;-61
2024/01/19 00:15:14;;;;;;;;;;;-3.20;99.90;;;;;;7326812;19;109074;-61
2024/01/19 00:17:41;;;;;;;;;;;-3.10;99.90;;;;;;7330786;19;109166;-61
2024/01/19 00:20:09;;;;;;;;;;;-3.00;99.90;;;;;;7328948;19;110057;-61
2024/01/19 00:22:36;;;;;;;;;;;-3.00;99.90;;;;;;7329434;19;108540;-61
2024/01/19 00:25:03;;;;;;;;;;;-2.90;99.90;;;;;;7330119;19;111312;-61
2024/01/19 00:27:30;;;;;;;;;;;-2.90;99.90;;;;;;7330258;19;108422;-61
2024/01/19 00:29:57;;;;;;;;;;;-2.80;99.90;;;;;;7328949;19;110940;-61
2024/01/19 00:32:24;;;;;;;;;;;-2.70;99.90;;;;;;7329276;19;109548;-61
2024/01/19 00:34:52;;;;;;;;;;;-2.60;99.90;;;;;;7335067;19;109855;-61
2024/01/19 00:37:19;;;;;;;;;;;-2.60;99.90;;;;;;7327753;19;109526;-61
2024/01/19 00:39:46;;;;;;;;;;;-2.50;99.90;;;;;;7327650;19;109930;-61
2024/01/19 00:42:13;;;;;;;;;;;-2.50;99.90;;;;;;7330152;19;108713;-61
2024/01/19 00:44:40;;;;;;;;;;;-2.40;99.90;;;;;;7330004;19;114090;-61
2024/01/19 00:47:07;;;;;;;;;;;-2.30;99.90;;;;;;7328080;19;109273;-61
2024/01/19 00:49:34;;;;;;;;;;;-2.10;99.90;;;;;;7331230;19;109026;-60
2024/01/19 00:52:02;;;;;;;;;;;-2.00;99.90;;;;;;7327718;19;110254;-61
2024/01/19 00:54:29;;;;;;;;;;;-2.00;99.90;;;;;;7329582;19;108371;-61
2024/01/19 00:56:56;;;;;;;;;;;-1.90;99.90;;;;;;7331139;19;110774;-63
2024/01/19 00:59:23;;;;;;;;;;;-1.90;99.90;;;;;;7326645;19;111569;-61
2024/01/19 01:01:50;;;;;;;;;;;-1.80;99.90;;;;;;7327272;19;111385;-61
2024/01/19 01:04:18;;;;;;;;;;;-1.90;99.90;;;;;;7329033;19;110073;-61
2024/01/19 01:06:45;;;;;;;;;;;-1.90;99.90;;;;;;7327987;19;108887;-61
2024/01/19 01:09:12;;;;;;;;;;;-1.90;99.90;;;;;;7328269;19;109008;-61
2024/01/19 01:11:39;;;;;;;;;;;-1.90;99.90;;;;;;7326734;19;109102;-61
2024/01/19 01:14:08;;;;;;;;;;;-1.90;99.90;;;;;;7328694;19;109419;-61
2024/01/19 01:16:35;;;;;;;;;;;-1.90;99.90;;;;;;7325435;19;110051;-61
2024/01/19 01:19:03;;;;;;;;;;;-1.90;99.90;;;;;;7336249;19;109539;-61
2024/01/19 01:21:30;;;;;;;;;;;-2.00;99.90;;;;;;7330916;19;108623;-61
2024/01/19 01:23:57;;;;;;;;;;;-2.00;99.90;;;;;;7328376;19;109413;-61
2024/01/19 01:26:24;;;;;;;;;;;-2.10;99.90;;;;;;7332316;19;108933;-61
2024/01/19 01:28:51;;;;;;;;;;;-2.10;99.90;;;;;;7335588;19;109472;-61
2024/01/19 01:31:18;;;;;;;;;;;-2.10;99.90;;;;;;7332871;19;109615;-61
2024/01/19 01:33:45;;;;;;;;;;;-2.10;99.90;;;;;;7334109;19;109141;-61
2024/01/19 01:36:13;;;;;;;;;;;-2.10;99.90;;;;;;7331168;19;110623;-62
2024/01/19 01:38:40;;;;;;;;;;;-2.10;99.90;;;;;;7340348;19;109029;-61
2024/01/19 01:41:07;;;;;;;;;;;-2.20;99.90;;;;;;7333401;19;109256;-61
2024/01/19 01:43:34;;;;;;;;;;;-2.20;99.90;;;;;;7334289;19;109135;-61
2024/01/19 01:46:01;;;;;;;;;;;-2.20;99.90;;;;;;7331756;19;108644;-61
2024/01/19 01:48:28;;;;;;;;;;;-2.30;99.90;;;;;;7337326;19;109335;-61
2024/01/19 01:50:56;;;;;;;;;;;-2.30;99.90;;;;;;7330774;19;110158;-61
2024/01/19 01:53:23;;;;;;;;;;;-2.30;99.90;;;;;;7334589;19;109421;-61
2024/01/19 01:55:51;;;;;;;;;;;-2.30;99.90;;;;;;7333170;19;109153;-61
2024/01/19 01:58:18;;;;;;;;;;;-2.30;99.90;;;;;;7330326;19;109223;-61
2024/01/19 02:00:46;;;;;;;;;;;-2.30;99.90;;;;;;7340770;19;109095;-61
2024/01/19 02:03:13;;;;;;;;;;;-2.30;99.90;;;;;;7330846;19;110833;-61
2024/01/19 02:05:40;;;;;;;;;;;-2.30;99.90;;;;;;7336378;19;109398;-60
2024/01/19 02:08:08;;;;;;;;;;;-2.20;99.90;;;;;;7335992;19;109276;-61
2024/01/19 02:10:35;;;;;;;;;;;-2.20;99.90;;;;;;7335216;19;109370;-61
2024/01/19 02:13:03;;;;;;;;;;;-2.20;99.90;;;;;;7333443;19;108644;-61
2024/01/19 02:15:30;;;;;;;;;;;-2.20;99.90;;;;;;7332217;19;110865;-61
2024/01/19 02:17:57;;;;;;;;;;;-2.20;99.90;;;;;;7332669;19;111871;-61
2024/01/19 02:20:24;;;;;;;;;;;-2.20;99.90;;;;;;7332741;19;110718;-61
2024/01/19 02:22:52;;;;;;;;;;;-2.30;99.90;;;;;;7337879;19;109382;-61
2024/01/19 02:25:19;;;;;;;;;;;-2.30;99.90;;;;;;7333384;19;110039;-61
2024/01/19 02:27:47;;;;;;;;;;;-2.30;99.90;;;;;;7333201;19;108758;-61
2024/01/19 02:30:14;;;;;;;;;;;-2.40;99.90;;;;;;7333452;19;110340;-61
2024/01/19 02:32:41;;;;;;;;;;;-2.40;99.90;;;;;;7333502;19;109082;-61
2024/01/19 02:35:09;;;;;;;;;;;-2.40;99.90;;;;;;7331792;19;111640;-61
2024/01/19 02:37:36;;;;;;;;;;;-2.50;99.90;;;;;;7329876;19;109540;-61
2024/01/19 02:40:05;;;;;;;;;;;-2.50;99.90;;;;;;7330274;19;108727;-61
2024/01/19 02:42:32;;;;;;;;;;;-2.50;99.90;;;;;;7329004;19;109138;-61
2024/01/19 02:44:59;;;;;;;;;;;-2.50;99.90;;;;;;7334559;19;109156;-61
2024/01/19 02:47:30;;;;;;;;;;;-2.50;99.90;;;;;;7333213;19;109125;-61
2024/01/19 02:50:01;;;;;;;;;;;-2.50;99.90;;;;;;7331944;19;110931;-61
2024/01/19 02:52:28;;;;;;;;;;;-2.50;99.90;;;;;;7334929;19;108715;-61
2024/01/19 02:54:55;;;;;;;;;;;-2.50;99.90;;;;;;7336820;19;109462;-61
2024/01/19 02:57:22;;;;;;;;;;;-2.60;99.90;;;;;;7331190;19;109525;-61
2024/01/19 02:59:49;;;;;;;;;;;-2.60;99.90;;;;;;7334085;19;111941;-61
2024/01/19 03:02:16;;;;;;;;;;;-2.60;99.90;;;;;;7330267;19;108818;-61
2024/01/19 03:04:43;;;;;;;;;;;-2.60;99.90;;;;;;7333129;19;110203;-61
2024/01/19 03:07:12;;;;;;;;;;;-2.60;99.90;;;;;;7337550;19;108708;-61
2024/01/19 03:09:39;;;;;;;;;;;-2.70;99.90;;;;;;7333787;19;109390;-61
2024/01/19 03:12:06;;;;;;;;;;;-2.80;99.90;;;;;;7332823;19;108547;-61
2024/01/19 03:14:35;;;;;;;;;;;-2.90;99.90;;;;;;7330324;19;108742;-61
2024/01/19 03:17:03;;;;;;;;;;;-2.90;99.90;;;;;;7334698;19;109287;-61
2024/01/19 03:19:31;;;;;;;;;;;-2.90;99.90;;;;;;7330802;19;110193;-61
2024/01/19 03:21:59;;;;;;;;;;;-2.90;99.90;;;;;;7331217;19;109119;-61
2024/01/19 03:24:26;;;;;;;;;;;-3.00;99.90;;;;;;7331648;19;109093;-61
2024/01/19 03:26:53;;;;;;;;;;;-3.00;99.90;;;;;;7327359;19;109762;-61
2024/01/19 03:29:22;;;;;;;;;;;-3.00;99.90;;;;;;7338880;19;109548;-61
2024/01/19 03:31:50;;;;;;;;;;;-3.00;99.90;;;;;;7332015;19;108828;-61
2024/01/19 03:34:17;;;;;;;;;;;-3.10;99.90;;;;;;7327786;19;109315;-61
2024/01/19 03:36:44;;;;;;;;;;;-3.10;99.90;;;;;;7330607;19;109198;-61
2024/01/19 03:39:12;;;;;;;;;;;-3.10;99.90;;;;;;7330006;19;108746;-61
2024/01/19 03:41:39;;;;;;;;;;;-3.20;99.90;;;;;;7330455;19;108849;-61
2024/01/19 03:44:06;;;;;;;;;;;-3.10;99.90;;;;;;7325591;19;109115;-61
2024/01/19 03:46:33;;;;;;;;;;;-3.10;99.90;;;;;;7329900;19;113544;-61
2024/01/19 03:49:00;;;;;;;;;;;-3.10;99.90;;;;;;7331796;19;109246;-60
2024/01/19 03:51:27;;;;;;;;;;;-3.10;99.90;;;;;;7328173;19;110375;-61
2024/01/19 03:53:54;;;;;;;;;;;-3.00;99.90;;;;;;7335231;19;108535;-61
2024/01/19 03:56:21;;;;;;;;;;;-3.00;99.90;;;;;;7330053;19;109526;-61
2024/01/19 03:58:49;;;;;;;;;;;-3.00;99.90;;;;;;7334108;19;110903;-61
2024/01/19 04:01:16;;;;;;;;;;;-3.00;99.90;;;;;;7333274;19;109394;-61
2024/01/19 04:03:44;;;;;;;;;;;-3.10;99.90;;;;;;7332496;19;110166;-61
2024/01/19 04:06:12;;;;;;;;;;;-3.10;99.90;;;;;;7332149;19;108836;-62
2024/01/19 04:08:39;;;;;;;;;;;-3.10;99.90;;;;;;7333383;19;109318;-61
2024/01/19 04:11:06;;;;;;;;;;;-3.20;99.90;;;;;;7338337;19;109052;-62
2024/01/19 04:13:33;;;;;;;;;;;-3.20;99.90;;;;;;7330525;19;109827;-61
2024/01/19 04:16:00;;;;;;;;;;;-3.20;99.90;;;;;;7332825;19;110271;-61
2024/01/19 04:18:27;;;;;;;;;;;-3.10;99.90;;;;;;7332562;19;108990;-61
2024/01/19 04:20:54;;;;;;;;;;;-3.10;99.90;;;;;;7334146;19;109152;-61
2024/01/19 04:23:21;;;;;;;;;;;-3.10;99.90;;;;;;7331220;19;109169;-61
2024/01/19 04:25:48;;;;;;;;;;;-3.10;99.90;;;;;;7333304;19;109563;-61
2024/01/19 04:28:16;;;;;;;;;;;-3.10;99.90;;;;;;7329357;19;108938;-61
2024/01/19 04:30:43;;;;;;;;;;;-3.10;99.90;;;;;;7332996;19;109221;-61
2024/01/19 04:33:10;;;;;;;;;;;-3.10;99.90;;;;;;7332529;19;108647;-61
2024/01/19 04:35:37;;;;;;;;;;;-3.10;99.90;;;;;;7333591;19;109198;-61
2024/01/19 04:38:04;;;;;;;;;;;-3.10;99.90;;;;;;7332281;19;109011;-61
2024/01/19 04:40:31;;;;;;;;;;;-3.10;99.90;;;;;;7334129;19;110451;-61
2024/01/19 04:42:58;;;;;;;;;;;-3.10;99.90;;;;;;7331940;19;110786;-61
2024/01/19 04:45:25;;;;;;;;;;;-3.10;99.90;;;;;;7331929;19;109713;-61
2024/01/19 04:47:53;;;;;;;;;;;-3.10;99.90;;;;;;7328999;19;110712;-61
2024/01/19 04:50:20;;;;;;;;;;;-3.10;99.90;;;;;;7330560;19;109773;-61
2024/01/19 04:52:47;;;;;;;;;;;-3.10;99.90;;;;;;7330394;19;108924;-61
2024/01/19 04:55:14;;;;;;;;;;;-3.10;99.90;;;;;;7336643;19;108674;-61
2024/01/19 04:57:41;;;;;;;;;;;-3.10;99.90;;;;;;7330746;19;109519;-61
2024/01/19 05:00:08;;;;;;;;;;;-3.10;99.90;;;;;;7333434;19;109686;-61
2024/01/19 05:02:36;;;;;;;;;;;-3.10;99.90;;;;;;7338193;19;109379;-61
2024/01/19 05:05:03;;;;;;;;;;;-3.10;99.90;;;;;;7335466;19;110985;-61
2024/01/19 05:07:30;;;;;;;;;;;-3.10;99.90;;;;;;7339978;19;108817;-61
2024/01/19 05:09:57;;;;;;;;;;;-3.10;99.90;;;;;;7334020;19;109364;-61
2024/01/19 05:12:24;;;;;;;;;;;-3.10;99.90;;;;;;7335356;19;108408;-61
2024/01/19 05:14:51;;;;;;;;;;;-3.10;99.90;;;;;;7337741;19;109073;-61
2024/01/19 05:17:18;;;;;;;;;;;-3.10;99.90;;;;;;7342310;19;109166;-61
2024/01/19 05:19:46;;;;;;;;;;;-3.10;99.90;;;;;;7337426;19;110032;-61
2024/01/19 05:22:13;;;;;;;;;;;-3.10;99.90;;;;;;7334267;19;110200;-61
2024/01/19 05:24:41;;;;;;;;;;;-3.20;99.90;;;;;;7336006;19;109690;-61
2024/01/19 05:27:08;;;;;;;;;;;-3.20;99.90;;;;;;7334724;19;108773;-61
2024/01/19 05:29:35;;;;;;;;;;;-3.20;99.90;;;;;;7337071;19;110027;-61
2024/01/19 05:32:02;;;;;;;;;;;-3.20;99.90;;;;;;7335506;19;108760;-61
2024/01/19 05:34:30;;;;;;;;;;;-3.20;99.90;;;;;;7336472;19;108656;-61
2024/01/19 05:36:57;;;;;;;;;;;-3.10;99.90;;;;;;7335038;19;109150;-61
2024/01/19 05:39:24;;;;;;;;;;;-3.10;99.90;;;;;;7343821;19;109363;-61
2024/01/19 05:41:51;;;;;;;;;;;-3.10;99.90;;;;;;7336304;19;109311;-61
2024/01/19 05:44:18;;;;;;;;;;;-3.10;99.90;;;;;;7338719;19;108464;-61
2024/01/19 05:46:45;;;;;;;;;;;-3.20;99.90;;;;;;7333551;19;110881;-61
2024/01/19 05:49:12;;;;;;;;;;;-3.10;99.90;;;;;;7337794;19;110456;-61
2024/01/19 05:51:39;;;;;;;;;;;-3.10;99.90;;;;;;7336063;19;109203;-61
2024/01/19 05:54:06;;;;;;;;;;;-3.10;99.90;;;;;;7336975;19;110467;-61
2024/01/19 05:56:33;;;;;;;;;;;-3.10;99.90;;;;;;7337590;19;110447;-61
2024/01/19 05:59:00;;;;;;;;;;;-3.10;99.90;;;;;;7339410;19;109924;-61
2024/01/19 06:01:27;;;;;;;;;;;-3.10;99.90;;;;;;7335424;19;109552;-61
2024/01/19 06:03:57;;;;;;;;;;;-3.10;99.90;;;;;;7336513;19;109174;-61
2024/01/19 06:06:24;;;;;;;;;;;-3.00;99.90;;;;;;7334993;19;108810;-61
2024/01/19 06:08:52;;;;;;;;;;;-3.00;99.90;;;;;;7333652;19;110404;-61
2024/01/19 06:11:19;;;;;;;;;;;-3.00;99.90;;;;;;7337766;19;109051;-61
2024/01/19 06:13:47;;;;;;;;;;;-3.00;99.90;;;;;;7330859;19;108853;-61
2024/01/19 06:16:14;;;;;;;;;;;-2.90;99.90;;;;;;7337918;19;110466;-60
2024/01/19 06:18:41;;;;;;;;;;;-2.90;99.90;;;;;;7336348;19;108490;-60
2024/01/19 06:21:09;;;;;;;;;;;-2.90;99.90;;;;;;7338240;19;108980;-61
2024/01/19 06:23:38;;;;;;;;;;;-3.00;99.90;;;;;;7327516;19;109539;-62
2024/01/19 06:26:14;;;;;;;;;;;-3.00;99.90;;;;;;7331646;19;109308;-61
2024/01/19 06:28:41;;;;;;;;;;;-3.00;99.90;;;;;;7328309;19;111008;-61
2024/01/19 06:31:10;;;;;;;;;;;-3.00;99.90;;;;;;7330692;19;110002;-61
2024/01/19 06:33:37;;;;;;;;;;;-3.00;99.90;;;;;;7329511;19;109371;-61
2024/01/19 06:36:08;;;;;;;;;;;-3.00;99.90;;;;;;7336319;19;108955;-61
2024/01/19 06:38:36;;;;;;;;;;;-3.10;99.90;;;;;;7333710;19;108403;-60
2024/01/19 06:41:03;;;;;;;;;;;-3.10;99.90;;;;;;7335508;19;110172;-61
2024/01/19 06:43:33;;;;;;;;;;;-3.10;99.90;;;;;;7341760;19;109025;-61
2024/01/19 06:46:00;;;;;;;;;;;-3.10;99.90;;;;;;7338226;19;108854;-61
2024/01/19 06:48:30;;;;;;;;;;;-3.10;99.90;;;;;;7336323;19;109647;-61
2024/01/19 06:50:58;;;;;;;;;;;-3.00;99.90;;;;;;7334954;19;108799;-61
2024/01/19 06:53:25;;;;;;;;;;;-3.00;99.90;;;;;;7335791;19;108600;-68
2024/01/19 06:55:52;;;;;;;;;;;-3.00;99.90;;;;;;7337704;19;109077;-67
2024/01/19 06:58:19;;;;;;;;;;;-3.00;99.90;;;;;;7338070;19;109843;-67
2024/01/19 07:00:46;;;;;;;;;;;-3.00;99.90;;;;;;7337446;19;109497;-67
2024/01/19 07:03:14;;;;;;;;;;;-3.00;99.90;;;;;;7334646;19;109003;-70
2024/01/19 07:05:42;;;;;;;;;;;-3.00;99.90;;;;;;7340889;19;108424;-67
2024/01/19 07:08:10;;;;;;;;;;;-3.00;99.90;;;;;;7335012;19;110691;-66
2024/01/19 07:10:37;;;;;;;;;;;-3.10;99.90;;;;;;7334810;19;108813;-66
2024/01/19 07:13:04;;;;;;;;;;;-3.00;99.90;;;;;;7336932;19;110489;-68
2024/01/19 07:15:31;;;;;;;;;;;-3.00;99.90;;;;;;7336495;19;110024;-68
2024/01/19 07:17:59;;;;;;;;;;;-3.00;99.90;;;;;;7337185;19;109077;-70
2024/01/19 07:20:26;;;;;;;;;;;-3.00;99.90;;;;;;7333104;19;108758;-70
2024/01/19 07:22:55;;;;;;;;;;;-3.00;99.90;;;;;;7335203;19;109399;-67
2024/01/19 07:25:22;;;;;;;;;;;-3.10;99.90;;;;;;7331428;19;108899;-69
2024/01/19 07:27:49;;;;;;;;;;;-3.10;99.90;;;;;;7340391;19;109157;-69
2024/01/19 07:30:16;;;;;;;;;;;-3.20;99.90;;;;;;7333958;19;108806;-70
2024/01/19 07:32:44;;;;;;;;;;;-3.20;99.90;;;;;;7336856;19;109467;-71
2024/01/19 07:35:30;;;;;;;;;;;-3.20;99.90;;;;;;7335109;19;108528;-69
2024/01/19 07:37:57;;;;;;;;;;;-3.20;99.90;;;;;;7338867;19;109171;-68
2024/01/19 07:40:25;;;;;;;;;;;-3.20;99.90;;;;;;7333069;19;109408;-70
2024/01/19 07:42:52;;;;;;;;;;;-3.20;99.90;;;;;;7336841;19;110150;-69
2024/01/19 07:45:19;;;;;;;;;;;-3.30;99.90;;;;;;7335762;19;110532;-69
2024/01/19 07:47:46;;;;;;;;;;;-3.30;99.90;;;;;;7342149;19;108202;-69
2024/01/19 07:50:14;;;;;;;;;;;-3.30;99.90;;;;;;7335322;19;109317;-68
2024/01/19 07:52:41;;;;;;;;;;;-3.30;99.90;;;;;;7336575;19;109469;-68
2024/01/19 07:55:08;;;;;;;;;;;-3.30;99.90;;;;;;7336381;19;113718;-68
2024/01/19 07:57:35;;;;;;;;;;;-3.30;99.90;;;;;;7335486;19;109075;-68
2024/01/19 08:00:03;;;;;;;;;;;-3.20;99.90;;;;;;7338996;19;108664;-68
2024/01/19 08:02:30;;;;;;;;;;;-3.20;99.90;;;;;;7337964;19;110272;-68
2024/01/19 08:04:57;;;;;;;;;;;-3.20;99.90;;;;;;7333851;19;108769;-69
2024/01/19 08:07:26;;;;;;;;;;;-3.20;99.90;;;;;;7336007;19;109150;-68
2024/01/19 08:09:53;;;;;;;;;;;-3.20;99.90;;;;;;7339872;19;114230;-69
2024/01/19 08:12:20;;;;;;;;;;;-3.20;99.90;;;;;;7337107;19;108946;-71
2024/01/19 08:14:47;;;;;;;;;;;-3.20;99.90;;;;;;7332796;19;110652;-70
2024/01/19 08:17:17;;;;;;;;;;;-3.10;99.90;;;;;;7337398;19;108648;-71
2024/01/19 08:19:44;;;;;;;;;;;-3.10;99.90;;;;;;7336582;19;109337;-68
2024/01/19 08:22:12;;;;;;;;;;;-3.10;99.90;;;;;;7333827;19;109114;-68
2024/01/19 08:24:39;;;;;;;;;;;-3.10;99.90;;;;;;7335722;19;108597;-69
2024/01/19 08:27:06;;;;;;;;;;;-3.10;99.90;;;;;;7337376;19;110874;-67
2024/01/19 08:29:33;;;;;;;;;;;-3.10;99.90;;;;;;7333011;19;110253;-69
2024/01/19 08:32:03;;;;;;;;;;;-3.00;99.90;;;;;;7342671;19;112883;-68
2024/01/19 08:34:30;;;;;;;;;;;-3.00;99.90;;;;;;7334397;19;109990;-68
2024/01/19 08:36:57;;;;;;;;;;;-2.90;99.90;;;;;;7344738;19;108804;-68
2024/01/19 08:39:25;;;;;;;;;;;-2.80;99.90;;;;;;7340489;19;111659;-68
2024/01/19 08:41:52;;;;;;;;;;;-2.70;99.90;;;;;;7342647;19;109912;-68
2024/01/19 08:44:19;;;;;;;;;;;-2.70;99.90;;;;;;7340683;19;109194;-69
2024/01/19 08:46:47;;;;;;;;;;;-2.60;99.90;;;;;;7340988;19;109199;-68
2024/01/19 08:49:14;;;;;;;;;;;-2.60;99.90;;;;;;7341756;19;109134;-68
2024/01/19 08:51:43;;;;;;;;;;;-2.50;99.90;;;;;;7343029;19;108763;-68
2024/01/19 08:54:11;;;;;;;;;;;-2.40;99.90;;;;;;7345815;19;109463;-68
2024/01/19 08:56:38;;;;;;;;;;;-2.40;99.90;;;;;;7341606;19;110376;-68
2024/01/19 08:59:17;;;;;;;;;;;-2.30;99.90;;;;;;7339736;19;108517;-68
2024/01/19 09:01:45;;;;;;;;;;;-2.30;99.90;;;;;;7341120;19;110278;-68
2024/01/19 09:04:12;;;;;;;;;;;-2.20;99.90;;;;;;7339825;19;109048;-68
2024/01/19 09:06:40;;;;;;;;;;;-2.10;99.90;;;;;;7339900;19;108703;-69
2024/01/19 09:09:11;;;;;;;;;;;-2.10;99.90;;;;;;7340297;19;111146;-68
2024/01/19 09:11:39;;;;;;;;;;;-2.00;99.90;;;;;;7339362;19;113168;-68
2024/01/19 09:14:09;;;;;;;;;;;-1.90;99.90;;;;;;7341825;19;109575;-68
2024/01/19 09:16:44;;;;;;;;;;;-1.90;99.90;;;;;;7342294;19;109088;-68
2024/01/19 09:19:12;;;;;;;;;;;-1.80;99.90;;;;;;7341422;19;108621;-68
2024/01/19 09:21:40;;;;;;;;;;;-1.70;99.90;;;;;;7339910;19;109241;-68
2024/01/19 09:24:07;;;;;;;;;;;-1.60;99.90;;;;;;7339647;19;108214;-69
2024/01/19 09:26:34;;;;;;;;;;;-1.60;99.90;;;;;;7337010;19;108529;-69
2024/01/19 09:29:01;;;;;;;;;;;-1.50;99.90;;;;;;7339723;19;109004;-68
2024/01/19 09:31:28;;;;;;;;;;;-1.40;99.90;;;;;;7337751;19;109418;-68
2024/01/19 09:33:58;;;;;;;;;;;-1.30;99.90;;;;;;7339397;19;110017;-68
2024/01/19 09:36:25;;;;;;;;;;;-1.30;99.90;;;;;;7338577;19;111718;-69
2024/01/19 09:38:52;;;;;;;;;;;-1.20;99.90;;;;;;7342094;19;109266;-74
2024/01/19 09:41:31;;;;;;;;;;;-1.10;99.90;;;;;;7340175;19;109831;-75
2024/01/19 09:43:59;;;;;;;;;;;-1.00;99.90;;;;;;7339004;19;108454;-76
2024/01/19 09:46:28;;;;;;;;;;;-0.90;99.90;;;;;;7339165;19;108960;-69
2024/01/19 09:48:55;;;;;;;;;;;-0.80;99.90;;;;;;7334177;19;109128;-71
2024/01/19 09:51:27;;;;;;;;;;;-0.60;99.90;;;;;;7336254;19;108779;-68
2024/01/19 09:53:59;;;;;;;;;;;-0.60;99.90;;;;;;7335490;19;110867;-71
2024/01/19 09:56:26;;;;;;;;;;;-0.50;99.90;;;;;;7336358;19;109113;-70
2024/01/19 09:58:54;;;;;;;;;;;-0.40;99.90;;;;;;7340875;19;108676;-69
2024/01/19 10:01:21;;;;;;;;;;;-0.30;99.90;;;;;;7338478;19;110274;-68
2024/01/19 10:03:48;;;;;;;;;;;-0.20;99.90;;;;;;7336939;19;113989;-68
2024/01/19 10:06:15;;;;;;;;;;;-0.10;99.90;;;;;;7339634;19;109120;-68
2024/01/19 10:08:43;;;;;;;;;;;-0.10;99.90;;;;;;7338121;19;110471;-69
2024/01/19 10:11:10;;;;;;;;;;;0.00;99.90;;;;;;7336817;19;110022;-68
2024/01/19 10:13:38;;;;;;;;;;;0.10;99.90;;;;;;7337122;19;110888;-69
2024/01/19 10:16:07;;;;;;;;;;;0.20;99.90;;;;;;7337737;19;110279;-68
2024/01/19 10:18:34;;;;;;;;;;;0.30;99.90;;;;;;7339845;19;108762;-68
2024/01/19 10:21:02;;;;;;;;;;;0.40;99.90;;;;;;7345044;19;109029;-68
2024/01/19 10:23:29;;;;;;;;;;;0.50;99.90;;;;;;7338069;19;109969;-69
2024/01/19 10:26:11;;;;;;;;;;;0.60;99.90;;;;;;7337095;19;109102;-68
2024/01/19 10:28:39;;;;;;;;;;;0.70;99.90;;;;;;7334822;19;109134;-68
2024/01/19 10:31:16;;;;;;;;;;;0.80;99.90;;;;;;7335513;19;108690;-69
2024/01/19 10:33:54;;;;;;;;;;;0.80;99.90;;;;;;7338444;19;108689;-68
2024/01/19 10:36:21;;;;;;;;;;;0.90;99.90;;;;;;7336347;19;109282;-68
2024/01/19 10:38:49;;;;;;;;;;;1.10;99.90;;;;;;7337746;19;108709;-69
2024/01/19 10:41:16;;;;;;;;;;;1.10;99.90;;;;;;7339032;19;110144;-69
2024/01/19 10:43:44;;;;;;;;;;;1.20;99.90;;;;;;7343099;19;109165;-69
2024/01/19 10:46:17;;;;;;;;;;;1.30;99.90;;;;;;7338229;19;109008;-68
2024/01/19 10:48:50;;;;;;;;;;;1.40;99.90;;;;;;7335308;19;109433;-68
2024/01/19 10:51:20;;;;;;;;;;;1.50;99.90;;;;;;7340424;19;108381;-70
2024/01/19 10:53:51;;;;;;;;;;;1.50;99.90;;;;;;7337395;19;109325;-69
2024/01/19 10:56:19;;;;;;;;;;;1.60;99.90;;;;;;7337715;19;109594;-68
2024/01/19 10:58:47;;;;;;;;;;;1.70;99.90;;;;;;7339448;19;109641;-72
2024/01/19 11:01:15;;;;;;;;;;;1.80;99.90;;;;;;7340373;19;108949;-69
2024/01/19 11:03:43;;;;;;;;;;;1.80;99.90;;;;;;7336270;19;110523;-69
2024/01/19 11:06:11;;;;;;;;;;;1.90;99.90;;;;;;7343633;19;108735;-68
2024/01/19 11:08:45;;;;;;;;;;;2.00;99.90;;;;;;7336542;19;110333;-69
2024/01/19 11:11:12;;;;;;;;;;;2.10;99.90;;;;;;7337202;19;108860;-69
2024/01/19 11:13:42;;;;;;;;;;;2.20;99.90;;;;;;7334873;19;109218;-69
2024/01/19 11:16:14;;;;;;;;;;;2.20;99.90;;;;;;7337518;19;108156;-68
2024/01/19 11:18:42;;;;;;;;;;;2.30;99.90;;;;;;7335867;19;108814;-68
2024/01/19 11:21:10;;;;;;;;;;;2.40;99.90;;;;;;7338304;19;109909;-68
2024/01/19 11:23:38;;;;;;;;;;;2.50;99.90;;;;;;7334418;19;110168;-68
2024/01/19 11:26:12;;;;;;;;;;;2.50;99.90;;;;;;7337234;19;109305;-68
2024/01/19 11:28:54;;;;;;;;;;;2.70;99.90;;;;;;7342827;19;109019;-69
2024/01/19 11:31:33;;;;;;;;;;;2.80;99.90;;;;;;7335047;19;108889;-69
2024/01/19 11:34:00;;;;;;;;;;;2.90;99.90;;;;;;7335148;19;109074;-68
2024/01/19 11:36:36;;;;;;;;;;;3.00;99.90;;;;;;7334962;19;113026;-68
2024/01/19 11:39:05;;;;;;;;;;;3.10;99.90;;;;;;7335371;19;112245;-68
2024/01/19 11:41:35;;;;;;;;;;;3.20;99.90;;;;;;7331482;19;109514;-68
2024/01/19 11:44:06;;;;;;;;;;;3.30;99.90;;;;;;7333333;19;110257;-69
2024/01/19 11:46:41;;;;;;;;;;;3.40;99.90;;;;;;7333214;19;108411;-68
2024/01/19 11:49:28;;;;;;;;;;;3.50;99.90;;;;;;7333449;19;109180;-68
2024/01/19 11:51:59;;;;;;;;;;;3.60;99.90;;;;;;7338631;19;109888;-67
2024/01/19 11:54:30;;;;;;;;;;;3.70;99.90;;;;;;7336493;19;109602;-69
2024/01/19 11:57:15;;;;;;;;;;;3.80;99.90;;;;;;7334725;19;109694;-68
2024/01/19 11:59:43;;;;;;;;;;;3.90;99.90;;;;;;7336742;19;109038;-68
2024/01/19 12:02:23;;;;;;;;;;;4.00;99.90;;;;;;7334716;19;108835;-67
2024/01/19 12:04:51;;;;;;;;;;;4.10;99.90;;;;;;7335781;19;111418;-68
2024/01/19 12:07:19;;;;;;;;;;;4.20;99.90;;;;;;7333850;19;109454;-69
2024/01/19 12:10:06;;;;;;;;;;;4.30;99.90;;;;;;7334282;19;108529;-70
2024/01/19 12:12:33;;;;;;;;;;;4.40;99.90;;;;;;7338667;19;110534;-68
2024/01/19 12:15:02;;;;;;;;;;;4.40;99.90;;;;;;7336450;19;109161;-68
2024/01/19 12:17:49;;;;;;;;;;;4.50;99.90;;;;;;7335033;19;111577;-68
2024/01/19 12:20:18;;;;;;;;;;;4.60;99.90;;;;;;7332918;19;108779;-68
2024/01/19 12:22:46;;;;;;;;;;;4.80;99.90;;;;;;7336445;19;109353;-70
2024/01/19 12:25:13;;;;;;;;;;;4.90;99.90;;;;;;7334875;19;110101;-68
2024/01/19 12:27:41;;;;;;;;;;;4.90;99.90;;;;;;7335422;19;108917;-68
2024/01/19 12:30:09;;;;;;;;;;;5.00;99.90;;;;;;7334779;19;109958;-68
2024/01/19 12:32:38;;;;;;;;;;;5.20;99.90;;;;;;7332597;19;109597;-68
2024/01/19 12:35:05;;;;;;;;;;;5.30;99.90;;;;;;7341835;19;108407;-68
2024/01/19 12:37:33;;;;;;;;;;;5.30;99.90;;;;;;7334761;19;111441;-69
2024/01/19 12:40:12;;;;;;;;;;;5.40;99.90;;;;;;7335814;19;108493;-68
2024/01/19 12:42:41;;;;;;;;;;;5.50;99.90;;;;;;7334879;19;108699;-68
2024/01/19 12:45:10;;;;;;;;;;;5.50;99.90;;;;;;7333887;19;110187;-69
2024/01/19 12:47:44;;;;;;;;;;;5.60;99.90;;;;;;7333574;19;109207;-69
2024/01/19 12:50:14;;;;;;;;;;;5.60;99.90;;;;;;7334554;19;109487;-70
2024/01/19 12:52:50;;;;;;;;;;;5.70;99.90;;;;;;7335097;19;110270;-69
2024/01/19 12:55:30;;;;;;;;;;;5.80;99.90;;;;;;7332549;19;108465;-69
2024/01/19 12:57:58;;;;;;;;;;;5.80;99.90;;;;;;7339939;19;109707;-70
2024/01/19 13:00:26;;;;;;;;;;;5.80;99.90;;;;;;7333449;19;108756;-69
2024/01/19 13:02:59;;;;;;;;;;;5.80;99.90;;;;;;7333079;19;110215;-69
2024/01/19 13:05:28;;;;;;;;;;;5.90;99.90;;;;;;7332642;19;109135;-69
2024/01/19 13:07:59;;;;;;;;;;;6.00;99.90;;;;;;7331305;19;108850;-69
2024/01/19 13:10:27;;;;;;;;;;;6.00;99.90;;;;;;7331478;19;108573;-70
2024/01/19 13:13:07;;;;;;;;;;;6.00;99.90;;;;;;7333772;19;109218;-68
2024/01/19 13:15:34;;;;;;;;;;;6.00;99.90;;;;;;7330116;19;108914;-68
2024/01/19 13:18:05;;;;;;;;;;;6.10;99.90;;;;;;7334397;19;108802;-77
2024/01/19 13:20:33;;;;;;;;;;;6.20;99.90;;;;;;7337663;19;109298;-72
2024/01/19 13:23:00;;;;;;;;;;;6.20;99.90;;;;;;7340833;19;109143;-74
2024/01/19 13:25:28;;;;;;;;;;;6.20;99.90;;;;;;7341187;19;112616;-68
2024/01/19 13:27:58;;;;;;;;;;;6.20;99.90;;;;;;7338203;19;110058;-69
2024/01/19 13:30:28;;;;;;;;;;;6.30;99.90;;;;;;7340434;19;109210;-70
2024/01/19 13:32:56;;;;;;;;;;;6.30;99.90;;;;;;7338485;19;110134;-69
2024/01/19 13:35:26;;;;;;;;;;;6.40;99.90;;;;;;7340102;19;108552;-69
2024/01/19 13:37:53;;;;;;;;;;;6.30;99.90;;;;;;7341387;19;108741;-69
2024/01/19 13:40:20;;;;;;;;;;;6.40;99.90;;;;;;7336919;19;110158;-68
2024/01/19 13:42:47;;;;;;;;;;;6.50;99.90;;;;;;7346700;19;108879;-69
2024/01/19 13:45:14;;;;;;;;;;;6.50;99.90;;;;;;7340473;19;109286;-68
2024/01/19 13:47:41;;;;;;;;;;;6.50;99.90;;;;;;7337423;19;109379;-69
2024/01/19 13:50:09;;;;;;;;;;;6.60;99.90;;;;;;7339713;19;108356;-69
2024/01/19 13:52:38;;;;;;;;;;;6.60;99.90;;;;;;7338844;19;110185;-68
2024/01/19 13:55:06;;;;;;;;;;;6.60;99.90;;;;;;7341495;19;108405;-69
2024/01/19 13:57:33;;;;;;;;;;;6.60;99.90;;;;;;7338720;19;109195;-68
2024/01/19 14:00:00;;;;;;;;;;;6.70;99.90;;;;;;7339875;19;109111;-68
2024/01/19 14:02:29;;;;;;;;;;;6.80;99.90;;;;;;7338975;19;108859;-68
2024/01/19 14:04:57;;;;;;;;;;;6.80;99.90;;;;;;7343860;19;109673;-69
2024/01/19 14:07:24;;;;;;;;;;;6.80;99.90;;;;;;7339991;19;108947;-70
2024/01/19 14:09:52;;;;;;;;;;;6.80;99.90;;;;;;7337798;19;109209;-68
2024/01/19 14:12:19;;;;;;;;;;;6.80;99.90;;;;;;7337188;19;110418;-69
2024/01/19 14:14:47;;;;;;;;;;;6.90;99.90;;;;;;7335634;19;109120;-71